sensor_id;sensor_type;location;lat;lon;timestamp;temperature;humidity
34201;DHT22;20469;55.638;37.670;2022-12-20T00:01:31;-2.40;99.90
34201;DHT22;20469;55.638;37.670;2022-12-20T00:03:59;-2.40;99.90
34201;DHT22;20469;55.638;37.670;2022-12-20T00:06:28;-2.40;99.90
34201;DHT22;20469;55.638;37.670;2022-12-20T00:08:58;-2.40;99.90
34201;DHT22;20469;55.638;37.670;2022-12-20T00:11:26;-2.40;99.90
34201;DHT22;20469;55.638;37.670;2022-12-20T00:13:54;-2.30;99.90
34201;DHT22;20469;55.638;37.670;2022-12-20T00:16:24;-2.40;99.90
34201;DHT22;20469;55.638;37.670;2022-12-20T00:18:53;-2.30;99.90
34201;DHT22;20469;55.638;37.670;2022-12-20T00:21:20;-2.30;99.90
34201;DHT22;20469;55.638;37.670;2022-12-20T00:23:48;-2.40;99.90
34201;DHT22;20469;55.638;37.670;2022-12-20T00:26:18;-2.40;99.90
34201;DHT22;20469;55.638;37.670;2022-12-20T00:28:46;-2.30;99.90
34201;DHT22;20469;55.638;37.670;2022-12-20T00:31:16;-2.30;99.90
34201;DHT22;20469;55.638;37.670;2022-12-20T00:33:46;-2.40;99.90
34201;DHT22;20469;55.638;37.670;2022-12-20T00:36:15;-2.30;99.90
34201;DHT22;20469;55.638;37.670;2022-12-20T00:38:49;-2.30;99.90
34201;DHT22;20469;55.638;37.670;2022-12-20T00:41:22;-2.20;99.90
34201;DHT22;20469;55.638;37.670;2022-12-20T00:43:50;-2.40;99.90
34201;DHT22;20469;55.638;37.670;2022-12-20T00:46:20;-2.40;99.90
34201;DHT22;20469;55.638;37.670;2022-12-20T00:48:49;-2.40;99.90
34201;DHT22;20469;55.638;37.670;2022-12-20T00:51:22;-2.30;99.90
34201;DHT22;20469;55.638;37.670;2022-12-20T00:53:49;-2.30;99.90
34201;DHT22;20469;55.638;37.670;2022-12-20T00:56:16;-2.30;99.90
34201;DHT22;20469;55.638;37.670;2022-12-20T00:58:44;-2.30;99.90
34201;DHT22;20469;55.638;37.670;2022-12-20T01:01:23;-2.50;99.90
34201;DHT22;20469;55.638;37.670;2022-12-20T01:03:52;-2.50;99.90
34201;DHT22;20469;55.638;37.670;2022-12-20T01:06:21;-3.40;99.90
34201;DHT22;20469;55.638;37.670;2022-12-20T01:08:48;-2.70;99.90
34201;DHT22;20469;55.638;37.670;2022-12-20T01:11:21;-2.80;99.90
34201;DHT22;20469;55.638;37.670;2022-12-20T01:13:51;-3.00;99.90
34201;DHT22;20469;55.638;37.670;2022-12-20T01:16:23;-3.00;99.90
34201;DHT22;20469;55.638;37.670;2022-12-20T01:18:51;-2.70;99.90
34201;DHT22;20469;55.638;37.670;2022-12-20T01:21:21;-2.70;99.90
34201;DHT22;20469;55.638;37.670;2022-12-20T01:23:49;-2.90;99.90
34201;DHT22;20469;55.638;37.670;2022-12-20T01:26:18;-3.10;99.90
34201;DHT22;20469;55.638;37.670;2022-12-20T01:28:47;-2.90;99.90
34201;DHT22;20469;55.638;37.670;2022-12-20T01:31:16;-2.80;99.90
34201;DHT22;20469;55.638;37.670;2022-12-20T01:33:46;-2.80;99.90
34201;DHT22;20469;55.638;37.670;2022-12-20T01:36:18;-2.70;99.90
34201;DHT22;20469;55.638;37.670;2022-12-20T01:38:46;-2.80;99.90
34201;DHT22;20469;55.638;37.670;2022-12-20T01:41:18;-2.90;99.90
34201;DHT22;20469;55.638;37.670;2022-12-20T01:43:57;-2.70;99.90
34201;DHT22;20469;55.638;37.670;2022-12-20T01:46:27;-2.80;99.90
34201;DHT22;20469;55.638;37.670;2022-12-20T01:49:05;-2.80;99.90
34201;DHT22;20469;55.638;37.670;2022-12-20T01:51:36;-2.90;99.90
34201;DHT22;20469;55.638;37.670;2022-12-20T01:54:09;-2.80;99.90
34201;DHT22;20469;55.638;37.670;2022-12-20T01:56:39;-2.70;99.90
34201;DHT22;20469;55.638;37.670;2022-12-20T01:59:08;-2.90;99.90
34201;DHT22;20469;55.638;37.670;2022-12-20T02:01:36;-2.90;99.90
34201;DHT22;20469;55.638;37.670;2022-12-20T02:04:04;-2.80;99.90
34201;DHT22;20469;55.638;37.670;2022-12-20T02:06:31;-2.80;99.90
34201;DHT22;20469;55.638;37.670;2022-12-20T02:08:59;-2.70;99.90
34201;DHT22;20469;55.638;37.670;2022-12-20T02:11:35;-2.80;99.90
34201;DHT22;20469;55.638;37.670;2022-12-20T02:30:55;-3.20;99.90
34201;DHT22;20469;55.638;37.670;2022-12-20T02:33:25;-3.40;99.90
34201;DHT22;20469;55.638;37.670;2022-12-20T02:35:54;-3.30;99.90
34201;DHT22;20469;55.638;37.670;2022-12-20T02:38:33;-3.30;99.90
34201;DHT22;20469;55.638;37.670;2022-12-20T02:41:14;-3.40;99.90
34201;DHT22;20469;55.638;37.670;2022-12-20T02:43:46;-3.40;99.90
34201;DHT22;20469;55.638;37.670;2022-12-20T02:46:34;-3.40;99.90
34201;DHT22;20469;55.638;37.670;2022-12-20T02:49:06;-3.40;99.90
34201;DHT22;20469;55.638;37.670;2022-12-20T02:51:35;-3.40;99.90
34201;DHT22;20469;55.638;37.670;2022-12-20T02:54:03;-3.40;99.90
34201;DHT22;20469;55.638;37.670;2022-12-20T02:56:44;-3.40;99.90
34201;DHT22;20469;55.638;37.670;2022-12-20T02:59:17;-3.50;99.90
34201;DHT22;20469;55.638;37.670;2022-12-20T03:01:56;-3.60;99.90
34201;DHT22;20469;55.638;37.670;2022-12-20T03:04:28;-3.60;99.90
34201;DHT22;20469;55.638;37.670;2022-12-20T03:09:31;-3.60;99.90
34201;DHT22;20469;55.638;37.670;2022-12-20T03:11:59;-3.70;99.90
34201;DHT22;20469;55.638;37.670;2022-12-20T03:14:27;-3.80;99.90
34201;DHT22;20469;55.638;37.670;2022-12-20T03:16:54;-3.70;99.90
34201;DHT22;20469;55.638;37.670;2022-12-20T03:19:21;-4.00;99.90
34201;DHT22;20469;55.638;37.670;2022-12-20T03:21:49;-4.10;99.90
34201;DHT22;20469;55.638;37.670;2022-12-20T03:24:16;-3.90;99.90
34201;DHT22;20469;55.638;37.670;2022-12-20T03:26:43;-4.00;99.90
34201;DHT22;20469;55.638;37.670;2022-12-20T03:29:11;-4.10;99.90
34201;DHT22;20469;55.638;37.670;2022-12-20T03:31:38;-4.10;99.90
34201;DHT22;20469;55.638;37.670;2022-12-20T03:34:06;-4.10;99.90
34201;DHT22;20469;55.638;37.670;2022-12-20T03:36:33;-4.10;99.90
34201;DHT22;20469;55.638;37.670;2022-12-20T03:39:00;-4.30;99.90
34201;DHT22;20469;55.638;37.670;2022-12-20T03:41:27;-4.20;99.90
34201;DHT22;20469;55.638;37.670;2022-12-20T03:43:55;-4.20;99.90
34201;DHT22;20469;55.638;37.670;2022-12-20T03:46:22;-4.40;99.90
34201;DHT22;20469;55.638;37.670;2022-12-20T03:48:49;-4.30;99.90
34201;DHT22;20469;55.638;37.670;2022-12-20T03:51:18;-4.40;99.90
34201;DHT22;20469;55.638;37.670;2022-12-20T03:53:45;-4.40;99.90
34201;DHT22;20469;55.638;37.670;2022-12-20T03:56:12;-4.40;99.90
34201;DHT22;20469;55.638;37.670;2022-12-20T03:58:39;-4.40;99.90
34201;DHT22;20469;55.638;37.670;2022-12-20T04:01:24;-4.60;99.90
34201;DHT22;20469;55.638;37.670;2022-12-20T04:03:53;-4.60;99.90
34201;DHT22;20469;55.638;37.670;2022-12-20T04:06:21;-4.70;99.90
34201;DHT22;20469;55.638;37.670;2022-12-20T04:08:49;-4.70;99.90
34201;DHT22;20469;55.638;37.670;2022-12-20T04:11:16;-4.80;99.90
34201;DHT22;20469;55.638;37.670;2022-12-20T04:13:48;-4.70;99.90
34201;DHT22;20469;55.638;37.670;2022-12-20T04:16:18;-4.80;99.90
34201;DHT22;20469;55.638;37.670;2022-12-20T04:18:46;-4.70;99.90
34201;DHT22;20469;55.638;37.670;2022-12-20T04:21:14;-4.40;99.90
34201;DHT22;20469;55.638;37.670;2022-12-20T04:23:42;-4.60;99.90
34201;DHT22;20469;55.638;37.670;2022-12-20T04:26:10;-4.70;99.90
34201;DHT22;20469;55.638;37.670;2022-12-20T04:28:39;-4.90;99.90
34201;DHT22;20469;55.638;37.670;2022-12-20T04:31:06;-4.70;99.90
34201;DHT22;20469;55.638;37.670;2022-12-20T04:33:33;-4.80;99.90
34201;DHT22;20469;55.638;37.670;2022-12-20T04:36:01;-4.80;99.90
34201;DHT22;20469;55.638;37.670;2022-12-20T04:38:29;-4.80;99.90
34201;DHT22;20469;55.638;37.670;2022-12-20T04:40:57;-4.70;99.90
34201;DHT22;20469;55.638;37.670;2022-12-20T04:43:24;-4.70;99.90
34201;DHT22;20469;55.638;37.670;2022-12-20T04:45:53;-4.70;99.90
34201;DHT22;20469;55.638;37.670;2022-12-20T04:48:24;-4.90;99.90
34201;DHT22;20469;55.638;37.670;2022-12-20T04:51:15;-5.00;99.90
34201;DHT22;20469;55.638;37.670;2022-12-20T04:53:42;-5.00;99.90
34201;DHT22;20469;55.638;37.670;2022-12-20T04:56:19;-5.10;99.90
34201;DHT22;20469;55.638;37.670;2022-12-20T04:58:49;-5.00;99.90
34201;DHT22;20469;55.638;37.670;2022-12-20T05:01:17;-5.10;98.70
34201;DHT22;20469;55.638;37.670;2022-12-20T05:03:45;-5.10;97.40
34201;DHT22;20469;55.638;37.670;2022-12-20T05:06:13;-5.10;92.30
34201;DHT22;20469;55.638;37.670;2022-12-20T05:08:41;-5.10;87.00
34201;DHT22;20469;55.638;37.670;2022-12-20T05:11:08;-5.20;78.20
34201;DHT22;20469;55.638;37.670;2022-12-20T05:13:36;-5.10;70.30
34201;DHT22;20469;55.638;37.670;2022-12-20T05:16:03;-5.00;64.70
34201;DHT22;20469;55.638;37.670;2022-12-20T05:18:31;-5.10;55.90
34201;DHT22;20469;55.638;37.670;2022-12-20T05:21:00;-5.10;50.70
34201;DHT22;20469;55.638;37.670;2022-12-20T05:23:46;-5.10;45.50
34201;DHT22;20469;55.638;37.670;2022-12-20T05:26:35;-5.10;40.20
34201;DHT22;20469;55.638;37.670;2022-12-20T05:29:03;-5.20;34.40
34201;DHT22;20469;55.638;37.670;2022-12-20T05:31:30;-5.10;30.20
34201;DHT22;20469;55.638;37.670;2022-12-20T05:33:58;-5.20;27.30
34201;DHT22;20469;55.638;37.670;2022-12-20T05:36:26;-5.00;25.50
34201;DHT22;20469;55.638;37.670;2022-12-20T05:38:53;-5.00;23.30
34201;DHT22;20469;55.638;37.670;2022-12-20T05:41:29;-5.20;20.10
34201;DHT22;20469;55.638;37.670;2022-12-20T05:43:56;-5.20;18.30
34201;DHT22;20469;55.638;37.670;2022-12-20T05:46:24;-5.20;16.80
34201;DHT22;20469;55.638;37.670;2022-12-20T05:48:51;-5.20;15.80
34201;DHT22;20469;55.638;37.670;2022-12-20T05:51:18;-5.20;15.30
34201;DHT22;20469;55.638;37.670;2022-12-20T05:53:45;-5.30;13.00
34201;DHT22;20469;55.638;37.670;2022-12-20T05:56:12;-5.10;13.90
34201;DHT22;20469;55.638;37.670;2022-12-20T05:58:39;-5.20;11.80
34201;DHT22;20469;55.638;37.670;2022-12-20T06:01:08;-5.10;12.60
34201;DHT22;20469;55.638;37.670;2022-12-20T06:03:39;-5.30;10.80
34201;DHT22;20469;55.638;37.670;2022-12-20T06:06:07;-5.20;9.30
34201;DHT22;20469;55.638;37.670;2022-12-20T06:08:40;-5.20;8.20
34201;DHT22;20469;55.638;37.670;2022-12-20T06:11:07;-5.20;6.60
34201;DHT22;20469;55.638;37.670;2022-12-20T06:13:35;-5.20;5.70
34201;DHT22;20469;55.638;37.670;2022-12-20T06:16:02;-5.20;4.70
34201;DHT22;20469;55.638;37.670;2022-12-20T06:18:29;-5.20;3.10
34201;DHT22;20469;55.638;37.670;2022-12-20T06:20:56;-5.20;2.20
34201;DHT22;20469;55.638;37.670;2022-12-20T06:23:23;-5.30;1.00
34201;DHT22;20469;55.638;37.670;2022-12-20T06:25:51;-5.30;2.70
34201;DHT22;20469;55.638;37.670;2022-12-20T06:28:19;-5.30;2.40
34201;DHT22;20469;55.638;37.670;2022-12-20T06:30:55;-5.30;1.00
34201;DHT22;20469;55.638;37.670;2022-12-20T06:33:23;-5.40;1.00
34201;DHT22;20469;55.638;37.670;2022-12-20T06:35:51;-5.30;1.10
34201;DHT22;20469;55.638;37.670;2022-12-20T06:38:18;-5.40;1.40
34201;DHT22;20469;55.638;37.670;2022-12-20T06:40:45;-5.40;2.10
34201;DHT22;20469;55.638;37.670;2022-12-20T06:43:12;-5.30;1.40
34201;DHT22;20469;55.638;37.670;2022-12-20T06:45:40;-5.30;1.00
34201;DHT22;20469;55.638;37.670;2022-12-20T06:48:09;-5.50;1.00
34201;DHT22;20469;55.638;37.670;2022-12-20T06:50:37;-5.50;1.00
34201;DHT22;20469;55.638;37.670;2022-12-20T06:53:05;-5.50;1.00
34201;DHT22;20469;55.638;37.670;2022-12-20T06:55:32;-5.50;1.00
34201;DHT22;20469;55.638;37.670;2022-12-20T06:58:00;-5.50;1.00
34201;DHT22;20469;55.638;37.670;2022-12-20T07:00:27;-5.50;1.00
34201;DHT22;20469;55.638;37.670;2022-12-20T07:02:54;-5.50;1.00
34201;DHT22;20469;55.638;37.670;2022-12-20T07:05:22;-5.50;1.00
34201;DHT22;20469;55.638;37.670;2022-12-20T07:07:49;-5.50;1.00
34201;DHT22;20469;55.638;37.670;2022-12-20T07:10:17;-5.40;1.00
34201;DHT22;20469;55.638;37.670;2022-12-20T07:12:44;-4.90;1.00
34201;DHT22;20469;55.638;37.670;2022-12-20T07:15:14;-5.50;1.00
34201;DHT22;20469;55.638;37.670;2022-12-20T07:17:42;-5.40;1.00
34201;DHT22;20469;55.638;37.670;2022-12-20T07:20:09;-5.40;1.00
34201;DHT22;20469;55.638;37.670;2022-12-20T07:22:40;-5.40;1.00
34201;DHT22;20469;55.638;37.670;2022-12-20T07:25:08;-5.50;1.00
34201;DHT22;20469;55.638;37.670;2022-12-20T07:27:35;-5.60;1.00
34201;DHT22;20469;55.638;37.670;2022-12-20T07:30:03;-5.60;1.00
34201;DHT22;20469;55.638;37.670;2022-12-20T07:32:31;-5.60;1.00
34201;DHT22;20469;55.638;37.670;2022-12-20T07:34:58;-5.80;1.00
34201;DHT22;20469;55.638;37.670;2022-12-20T07:37:28;-5.80;1.00
34201;DHT22;20469;55.638;37.670;2022-12-20T07:39:55;-5.80;1.00
34201;DHT22;20469;55.638;37.670;2022-12-20T07:42:22;-5.90;1.00
34201;DHT22;20469;55.638;37.670;2022-12-20T07:44:59;-5.90;1.00
34201;DHT22;20469;55.638;37.670;2022-12-20T07:47:27;-5.80;1.00
34201;DHT22;20469;55.638;37.670;2022-12-20T07:49:55;-5.80;1.00
34201;DHT22;20469;55.638;37.670;2022-12-20T07:52:23;-5.90;1.00
34201;DHT22;20469;55.638;37.670;2022-12-20T07:54:59;-5.90;1.00
34201;DHT22;20469;55.638;37.670;2022-12-20T07:57:41;-5.80;1.00
34201;DHT22;20469;55.638;37.670;2022-12-20T08:00:10;-5.80;1.00
34201;DHT22;20469;55.638;37.670;2022-12-20T08:02:58;-5.80;1.00
34201;DHT22;20469;55.638;37.670;2022-12-20T08:05:27;-5.80;1.00
34201;DHT22;20469;55.638;37.670;2022-12-20T08:07:58;-5.90;1.00
34201;DHT22;20469;55.638;37.670;2022-12-20T08:10:26;-5.80;1.00
34201;DHT22;20469;55.638;37.670;2022-12-20T08:12:54;-5.80;1.00
34201;DHT22;20469;55.638;37.670;2022-12-20T08:15:22;-5.70;1.00
34201;DHT22;20469;55.638;37.670;2022-12-20T08:17:50;-5.80;1.00
34201;DHT22;20469;55.638;37.670;2022-12-20T08:20:17;-5.80;1.00
34201;DHT22;20469;55.638;37.670;2022-12-20T08:22:44;-5.70;1.00
34201;DHT22;20469;55.638;37.670;2022-12-20T08:25:11;-5.50;1.00
34201;DHT22;20469;55.638;37.670;2022-12-20T08:27:38;-5.50;1.00
34201;DHT22;20469;55.638;37.670;2022-12-20T08:30:06;-5.60;1.00
34201;DHT22;20469;55.638;37.670;2022-12-20T08:32:34;-5.50;1.00
34201;DHT22;20469;55.638;37.670;2022-12-20T08:35:03;-5.50;1.00
34201;DHT22;20469;55.638;37.670;2022-12-20T08:37:31;-5.60;1.00
34201;DHT22;20469;55.638;37.670;2022-12-20T08:39:58;-5.60;1.00
34201;DHT22;20469;55.638;37.670;2022-12-20T08:42:28;-5.60;1.00
34201;DHT22;20469;55.638;37.670;2022-12-20T08:44:56;-5.60;1.00
34201;DHT22;20469;55.638;37.670;2022-12-20T08:47:23;-5.50;1.00
34201;DHT22;20469;55.638;37.670;2022-12-20T08:49:50;-5.40;1.00
34201;DHT22;20469;55.638;37.670;2022-12-20T08:52:17;-5.40;1.00
34201;DHT22;20469;55.638;37.670;2022-12-20T08:54:44;-5.40;1.00
34201;DHT22;20469;55.638;37.670;2022-12-20T08:57:12;-5.40;1.00
34201;DHT22;20469;55.638;37.670;2022-12-20T08:59:39;-5.40;1.00
34201;DHT22;20469;55.638;37.670;2022-12-20T09:02:06;-5.50;1.00
34201;DHT22;20469;55.638;37.670;2022-12-20T09:04:35;-5.40;1.00
34201;DHT22;20469;55.638;37.670;2022-12-20T09:07:02;-5.40;1.00
34201;DHT22;20469;55.638;37.670;2022-12-20T09:09:29;-5.40;1.00
34201;DHT22;20469;55.638;37.670;2022-12-20T09:11:57;-5.30;1.00
34201;DHT22;20469;55.638;37.670;2022-12-20T09:14:24;-5.50;1.00
34201;DHT22;20469;55.638;37.670;2022-12-20T09:16:51;-5.50;1.00
34201;DHT22;20469;55.638;37.670;2022-12-20T09:19:18;-5.50;1.00
34201;DHT22;20469;55.638;37.670;2022-12-20T09:21:46;-5.40;1.00
34201;DHT22;20469;55.638;37.670;2022-12-20T09:24:13;-5.40;1.00
34201;DHT22;20469;55.638;37.670;2022-12-20T09:26:40;-5.40;1.00
34201;DHT22;20469;55.638;37.670;2022-12-20T09:29:07;-5.40;1.00
34201;DHT22;20469;55.638;37.670;2022-12-20T09:31:34;-5.50;1.00
34201;DHT22;20469;55.638;37.670;2022-12-20T09:34:02;-5.30;1.00
34201;DHT22;20469;55.638;37.670;2022-12-20T09:36:30;-5.30;1.00
34201;DHT22;20469;55.638;37.670;2022-12-20T09:38:57;-5.50;1.00
34201;DHT22;20469;55.638;37.670;2022-12-20T09:41:32;-5.30;1.00
34201;DHT22;20469;55.638;37.670;2022-12-20T09:44:04;-5.10;1.00
34201;DHT22;20469;55.638;37.670;2022-12-20T09:46:33;-5.20;1.00
34201;DHT22;20469;55.638;37.670;2022-12-20T09:49:01;-5.00;1.00
34201;DHT22;20469;55.638;37.670;2022-12-20T09:57:57;-5.20;1.00
34201;DHT22;20469;55.638;37.670;2022-12-20T10:00:27;-4.90;1.00
34201;DHT22;20469;55.638;37.670;2022-12-20T10:02:56;-4.80;1.00
34201;DHT22;20469;55.638;37.670;2022-12-20T10:05:52;-5.20;1.00
34201;DHT22;20469;55.638;37.670;2022-12-20T10:08:38;-5.00;1.00
34201;DHT22;20469;55.638;37.670;2022-12-20T10:14:03;-5.10;1.00
34201;DHT22;20469;55.638;37.670;2022-12-20T10:16:45;-4.90;1.00
34201;DHT22;20469;55.638;37.670;2022-12-20T10:22:25;-4.80;1.00
34201;DHT22;20469;55.638;37.670;2022-12-20T10:25:17;-4.50;1.00
34201;DHT22;20469;55.638;37.670;2022-12-20T10:27:46;-4.40;1.00
34201;DHT22;20469;55.638;37.670;2022-12-20T10:30:21;-4.50;1.00
34201;DHT22;20469;55.638;37.670;2022-12-20T10:32:52;-4.00;1.00
34201;DHT22;20469;55.638;37.670;2022-12-20T10:35:37;-2.60;1.00
34201;DHT22;20469;55.638;37.670;2022-12-20T10:38:09;-1.10;1.00
34201;DHT22;20469;55.638;37.670;2022-12-20T10:41:02;-0.70;1.00
34201;DHT22;20469;55.638;37.670;2022-12-20T10:43:57;-2.30;1.00
34201;DHT22;20469;55.638;37.670;2022-12-20T10:49:32;-3.60;1.00
34201;DHT22;20469;55.638;37.670;2022-12-20T10:52:17;-4.40;1.00
34201;DHT22;20469;55.638;37.670;2022-12-20T10:54:46;-4.50;1.00
34201;DHT22;20469;55.638;37.670;2022-12-20T10:57:28;-4.40;1.00
34201;DHT22;20469;55.638;37.670;2022-12-20T11:00:00;-4.30;1.00
34201;DHT22;20469;55.638;37.670;2022-12-20T11:02:37;-4.20;1.00
34201;DHT22;20469;55.638;37.670;2022-12-20T11:07:55;-5.20;1.00
34201;DHT22;20469;55.638;37.670;2022-12-20T11:10:43;-4.20;1.00
34201;DHT22;20469;55.638;37.670;2022-12-20T11:13:22;-4.20;1.00
34201;DHT22;20469;55.638;37.670;2022-12-20T11:15:52;-4.20;1.00
34201;DHT22;20469;55.638;37.670;2022-12-20T11:18:43;-4.40;1.00
34201;DHT22;20469;55.638;37.670;2022-12-20T11:24:12;-4.80;1.00
34201;DHT22;20469;55.638;37.670;2022-12-20T11:34:38;-4.60;1.00
34201;DHT22;20469;55.638;37.670;2022-12-20T11:47:21;-4.90;1.00
34201;DHT22;20469;55.638;37.670;2022-12-20T11:49:30;-4.90;1.00
34201;DHT22;20469;55.638;37.670;2022-12-20T11:52:09;-4.80;1.00
34201;DHT22;20469;55.638;37.670;2022-12-20T11:54:46;-4.70;1.00
34201;DHT22;20469;55.638;37.670;2022-12-20T11:57:26;-4.80;1.00
34201;DHT22;20469;55.638;37.670;2022-12-20T11:59:59;-4.70;1.00
34201;DHT22;20469;55.638;37.670;2022-12-20T12:02:43;-4.60;1.00
34201;DHT22;20469;55.638;37.670;2022-12-20T12:05:26;-4.70;1.00
34201;DHT22;20469;55.638;37.670;2022-12-20T12:08:02;-4.70;1.00
34201;DHT22;20469;55.638;37.670;2022-12-20T12:10:34;-4.90;1.00
34201;DHT22;20469;55.638;37.670;2022-12-20T12:13:16;-4.80;1.00
34201;DHT22;20469;55.638;37.670;2022-12-20T12:16:10;-4.90;1.00
34201;DHT22;20469;55.638;37.670;2022-12-20T12:18:41;-5.00;1.00
34201;DHT22;20469;55.638;37.670;2022-12-20T12:21:25;-5.00;1.00
34201;DHT22;20469;55.638;37.670;2022-12-20T12:26:35;-5.00;1.00
34201;DHT22;20469;55.638;37.670;2022-12-20T12:32:05;-5.10;1.00
34201;DHT22;20469;55.638;37.670;2022-12-20T12:45:46;-6.70;1.00
34201;DHT22;20469;55.638;37.670;2022-12-20T12:48:35;-5.30;1.00
34201;DHT22;20469;55.638;37.670;2022-12-20T12:51:05;-5.30;1.00
34201;DHT22;20469;55.638;37.670;2022-12-20T12:53:53;-5.30;1.00
34201;DHT22;20469;55.638;37.670;2022-12-20T13:11:53;-5.30;1.00
34201;DHT22;20469;55.638;37.670;2022-12-20T13:19:49;-5.30;1.00
34201;DHT22;20469;55.638;37.670;2022-12-20T13:22:23;-5.30;1.00
34201;DHT22;20469;55.638;37.670;2022-12-20T13:24:59;-5.40;1.00
34201;DHT22;20469;55.638;37.670;2022-12-20T13:27:36;-5.40;1.00
34201;DHT22;20469;55.638;37.670;2022-12-20T13:43:36;-5.30;1.00
34201;DHT22;20469;55.638;37.670;2022-12-20T13:51:19;-5.20;1.00
34201;DHT22;20469;55.638;37.670;2022-12-20T13:53:49;-5.20;1.00
34201;DHT22;20469;55.638;37.670;2022-12-20T13:58:57;-5.20;1.00
34201;DHT22;20469;55.638;37.670;2022-12-20T14:01:25;-5.20;1.00
34201;DHT22;20469;55.638;37.670;2022-12-20T14:03:53;-5.40;1.00
34201;DHT22;20469;55.638;37.670;2022-12-20T14:06:22;-5.30;1.00
34201;DHT22;20469;55.638;37.670;2022-12-20T14:08:53;-5.10;1.00
34201;DHT22;20469;55.638;37.670;2022-12-20T14:11:23;-5.30;1.00
34201;DHT22;20469;55.638;37.670;2022-12-20T14:13:59;-5.30;1.00
34201;DHT22;20469;55.638;37.670;2022-12-20T14:16:29;-4.50;1.00
34201;DHT22;20469;55.638;37.670;2022-12-20T14:19:06;-5.50;1.00
34201;DHT22;20469;55.638;37.670;2022-12-20T14:21:44;-5.50;1.00
34201;DHT22;20469;55.638;37.670;2022-12-20T14:24:21;-5.50;1.00
34201;DHT22;20469;55.638;37.670;2022-12-20T14:26:51;-5.40;1.00
34201;DHT22;20469;55.638;37.670;2022-12-20T14:29:26;-5.50;1.00
34201;DHT22;20469;55.638;37.670;2022-12-20T14:31:54;-5.50;1.00
34201;DHT22;20469;55.638;37.670;2022-12-20T14:34:28;-5.50;1.00
34201;DHT22;20469;55.638;37.670;2022-12-20T14:37:29;-5.50;1.00
34201;DHT22;20469;55.638;37.670;2022-12-20T14:40:17;-5.60;1.00
34201;DHT22;20469;55.638;37.670;2022-12-20T14:42:45;-5.60;1.00
34201;DHT22;20469;55.638;37.670;2022-12-20T14:48:04;-5.70;1.00
34201;DHT22;20469;55.638;37.670;2022-12-20T14:50:35;-5.70;1.00
34201;DHT22;20469;55.638;37.670;2022-12-20T14:53:03;-5.70;1.00
34201;DHT22;20469;55.638;37.670;2022-12-20T14:55:38;-5.60;1.00
34201;DHT22;20469;55.638;37.670;2022-12-20T14:58:28;-5.60;1.00
34201;DHT22;20469;55.638;37.670;2022-12-20T15:03:56;-5.80;1.50
34201;DHT22;20469;55.638;37.670;2022-12-20T15:06:53;-5.80;4.40
34201;DHT22;20469;55.638;37.670;2022-12-20T15:09:20;-5.70;6.10
34201;DHT22;20469;55.638;37.670;2022-12-20T15:11:48;-5.80;6.50
34201;DHT22;20469;55.638;37.670;2022-12-20T15:14:35;-5.90;9.10
34201;DHT22;20469;55.638;37.670;2022-12-20T15:17:11;-5.90;11.60
34201;DHT22;20469;55.638;37.670;2022-12-20T15:19:39;-5.90;13.90
34201;DHT22;20469;55.638;37.670;2022-12-20T15:22:18;-5.80;16.30
34201;DHT22;20469;55.638;37.670;2022-12-20T15:24:49;-5.90;16.70
34201;DHT22;20469;55.638;37.670;2022-12-20T15:27:17;-6.00;16.80
34201;DHT22;20469;55.638;37.670;2022-12-20T15:29:44;-6.00;19.80
34201;DHT22;20469;55.638;37.670;2022-12-20T15:32:24;-6.00;21.30
34201;DHT22;20469;55.638;37.670;2022-12-20T15:34:55;-6.00;23.00
34201;DHT22;20469;55.638;37.670;2022-12-20T15:37:22;-6.00;25.00
34201;DHT22;20469;55.638;37.670;2022-12-20T15:39:50;-6.00;26.90
34201;DHT22;20469;55.638;37.670;2022-12-20T15:42:18;-6.20;27.10
34201;DHT22;20469;55.638;37.670;2022-12-20T15:44:46;-6.00;31.30
34201;DHT22;20469;55.638;37.670;2022-12-20T15:47:15;-6.00;33.00
34201;DHT22;20469;55.638;37.670;2022-12-20T15:49:42;-6.10;32.30
34201;DHT22;20469;55.638;37.670;2022-12-20T15:52:21;-6.10;34.90
34201;DHT22;20469;55.638;37.670;2022-12-20T15:54:49;-6.10;39.40
34201;DHT22;20469;55.638;37.670;2022-12-20T15:57:16;-7.10;41.90
34201;DHT22;20469;55.638;37.670;2022-12-20T15:59:43;-6.00;45.60
34201;DHT22;20469;55.638;37.670;2022-12-20T16:02:28;-6.10;41.30
34201;DHT22;20469;55.638;37.670;2022-12-20T16:04:57;-6.10;44.40
34201;DHT22;20469;55.638;37.670;2022-12-20T16:07:25;-6.10;46.50
34201;DHT22;20469;55.638;37.670;2022-12-20T16:09:52;-6.10;49.20
34201;DHT22;20469;55.638;37.670;2022-12-20T16:12:31;-6.20;53.40
34201;DHT22;20469;55.638;37.670;2022-12-20T16:14:58;-6.10;55.40
34201;DHT22;20469;55.638;37.670;2022-12-20T16:17:26;-6.10;58.80
34201;DHT22;20469;55.638;37.670;2022-12-20T16:19:53;-6.10;59.50
34201;DHT22;20469;55.638;37.670;2022-12-20T16:22:22;-6.00;58.70
34201;DHT22;20469;55.638;37.670;2022-12-20T16:24:50;-6.00;60.80
34201;DHT22;20469;55.638;37.670;2022-12-20T16:27:17;-6.10;63.20
34201;DHT22;20469;55.638;37.670;2022-12-20T16:29:45;-6.10;62.60
34201;DHT22;20469;55.638;37.670;2022-12-20T16:32:17;-6.00;73.10
34201;DHT22;20469;55.638;37.670;2022-12-20T16:34:45;-6.10;66.20
34201;DHT22;20469;55.638;37.670;2022-12-20T16:37:12;-5.90;73.80
34201;DHT22;20469;55.638;37.670;2022-12-20T16:39:40;-5.90;75.20
34201;DHT22;20469;55.638;37.670;2022-12-20T16:42:16;-5.90;69.30
34201;DHT22;20469;55.638;37.670;2022-12-20T16:44:44;-5.80;71.80
34201;DHT22;20469;55.638;37.670;2022-12-20T16:47:12;-5.70;73.30
34201;DHT22;20469;55.638;37.670;2022-12-20T16:49:41;-5.90;66.60
34201;DHT22;20469;55.638;37.670;2022-12-20T16:52:18;-5.90;70.80
34201;DHT22;20469;55.638;37.670;2022-12-20T16:54:46;-5.80;74.20
34201;DHT22;20469;55.638;37.670;2022-12-20T16:57:13;-5.90;68.10
34201;DHT22;20469;55.638;37.670;2022-12-20T16:59:40;-5.90;71.40
34201;DHT22;20469;55.638;37.670;2022-12-20T17:02:36;-5.80;76.90
34201;DHT22;20469;55.638;37.670;2022-12-20T17:05:04;-5.80;78.60
34201;DHT22;20469;55.638;37.670;2022-12-20T17:07:31;-5.90;73.10
34201;DHT22;20469;55.638;37.670;2022-12-20T17:10:08;-5.80;80.60
34201;DHT22;20469;55.638;37.670;2022-12-20T17:12:38;-5.70;83.60
34201;DHT22;20469;55.638;37.670;2022-12-20T17:15:06;-5.90;77.60
34201;DHT22;20469;55.638;37.670;2022-12-20T17:17:36;-5.90;79.40
34201;DHT22;20469;55.638;37.670;2022-12-20T17:20:04;-5.90;80.50
34201;DHT22;20469;55.638;37.670;2022-12-20T17:22:31;-5.70;84.50
34201;DHT22;20469;55.638;37.670;2022-12-20T17:25:31;-5.80;83.80
34201;DHT22;20469;55.638;37.670;2022-12-20T17:27:59;-5.80;82.10
34201;DHT22;20469;55.638;37.670;2022-12-20T17:30:26;-5.80;84.40
34201;DHT22;20469;55.638;37.670;2022-12-20T17:32:53;-5.80;84.00
34201;DHT22;20469;55.638;37.670;2022-12-20T17:35:24;-5.90;85.00
34201;DHT22;20469;55.638;37.670;2022-12-20T17:37:51;-6.00;82.80
34201;DHT22;20469;55.638;37.670;2022-12-20T17:40:23;-5.90;87.90
34201;DHT22;20469;55.638;37.670;2022-12-20T17:42:51;-6.00;88.30
34201;DHT22;20469;55.638;37.670;2022-12-20T17:45:28;-6.00;91.10
34201;DHT22;20469;55.638;37.670;2022-12-20T17:47:56;-6.00;91.90
34201;DHT22;20469;55.638;37.670;2022-12-20T17:50:24;-6.00;93.00